sensor_id;sensor_type;location;lat;lon;timestamp;P1;durP1;ratioP1;P2;durP2;ratioP2
78716;SDS011;68045;50.042;14.432;2023-04-24T00:01:08;16.48;;;9.07;;
78716;SDS011;68045;50.042;14.432;2023-04-24T00:05:09;16.05;;;8.90;;
78716;SDS011;68045;50.042;14.432;2023-04-24T00:09:10;13.65;;;7.97;;
78716;SDS011;68045;50.042;14.432;2023-04-24T00:13:11;15.85;;;9.15;;
78716;SDS011;68045;50.042;14.432;2023-04-24T00:17:12;14.35;;;8.38;;
78716;SDS011;68045;50.042;14.432;2023-04-24T00:21:13;14.63;;;8.32;;
78716;SDS011;68045;50.042;14.432;2023-04-24T00:25:15;12.27;;;6.95;;
78716;SDS011;68045;50.042;14.432;2023-04-24T00:29:16;13.23;;;7.10;;
78716;SDS011;68045;50.042;14.432;2023-04-24T00:33:17;12.80;;;7.40;;
78716;SDS011;68045;50.042;14.432;2023-04-24T00:37:18;12.43;;;6.97;;
78716;SDS011;68045;50.042;14.432;2023-04-24T00:41:19;11.20;;;6.25;;
78716;SDS011;68045;50.042;14.432;2023-04-24T00:45:21;10.93;;;6.10;;
78716;SDS011;68045;50.042;14.432;2023-04-24T00:49:22;13.07;;;6.85;;
78716;SDS011;68045;50.042;14.432;2023-04-24T00:53:24;13.02;;;6.72;;
78716;SDS011;68045;50.042;14.432;2023-04-24T00:57:25;10.82;;;6.35;;
78716;SDS011;68045;50.042;14.432;2023-04-24T01:06:09;9.10;;;5.50;;
78716;SDS011;68045;50.042;14.432;2023-04-24T01:10:11;9.70;;;5.25;;
78716;SDS011;68045;50.042;14.432;2023-04-24T01:14:14;10.30;;;4.38;;
78716;SDS011;68045;50.042;14.432;2023-04-24T01:18:15;7.32;;;4.63;;
78716;SDS011;68045;50.042;14.432;2023-04-24T01:22:16;8.98;;;4.70;;
78716;SDS011;68045;50.042;14.432;2023-04-24T01:26:18;10.15;;;4.00;;
78716;SDS011;68045;50.042;14.432;2023-04-24T01:30:20;7.03;;;4.05;;
78716;SDS011;68045;50.042;14.432;2023-04-24T01:34:22;5.65;;;3.30;;
78716;SDS011;68045;50.042;14.432;2023-04-24T01:38:23;6.15;;;3.10;;
78716;SDS011;68045;50.042;14.432;2023-04-24T01:42:24;4.78;;;2.83;;
78716;SDS011;68045;50.042;14.432;2023-04-24T01:46:25;5.93;;;2.25;;
78716;SDS011;68045;50.042;14.432;2023-04-24T01:50:26;3.55;;;2.28;;
78716;SDS011;68045;50.042;14.432;2023-04-24T01:54:27;4.22;;;2.08;;
78716;SDS011;68045;50.042;14.432;2023-04-24T01:58:30;3.60;;;2.25;;
78716;SDS011;68045;50.042;14.432;2023-04-24T02:02:30;5.45;;;1.98;;
78716;SDS011;68045;50.042;14.432;2023-04-24T02:06:32;3.53;;;2.10;;
78716;SDS011;68045;50.042;14.432;2023-04-24T02:10:34;3.83;;;2.05;;
78716;SDS011;68045;50.042;14.432;2023-04-24T02:14:36;3.70;;;2.17;;
78716;SDS011;68045;50.042;14.432;2023-04-24T02:18:37;5.55;;;2.38;;
78716;SDS011;68045;50.042;14.432;2023-04-24T02:22:38;4.22;;;1.92;;
78716;SDS011;68045;50.042;14.432;2023-04-24T02:26:39;3.17;;;2.00;;
78716;SDS011;68045;50.042;14.432;2023-04-24T02:30:40;5.78;;;2.30;;
78716;SDS011;68045;50.042;14.432;2023-04-24T02:34:41;4.25;;;1.75;;
78716;SDS011;68045;50.042;14.432;2023-04-24T02:38:42;4.10;;;1.80;;
78716;SDS011;68045;50.042;14.432;2023-04-24T02:42:43;3.05;;;1.83;;
78716;SDS011;68045;50.042;14.432;2023-04-24T02:46:43;4.75;;;2.25;;
78716;SDS011;68045;50.042;14.432;2023-04-24T02:50:45;3.05;;;1.80;;
78716;SDS011;68045;50.042;14.432;2023-04-24T02:54:46;4.93;;;2.20;;
78716;SDS011;68045;50.042;14.432;2023-04-24T02:58:47;2.97;;;1.95;;
78716;SDS011;68045;50.042;14.432;2023-04-24T03:02:48;3.83;;;2.20;;
78716;SDS011;68045;50.042;14.432;2023-04-24T03:06:51;7.90;;;2.00;;
78716;SDS011;68045;50.042;14.432;2023-04-24T03:10:54;5.93;;;2.10;;
78716;SDS011;68045;50.042;14.432;2023-04-24T03:14:55;3.03;;;1.90;;
78716;SDS011;68045;50.042;14.432;2023-04-24T03:18:56;5.40;;;2.10;;
78716;SDS011;68045;50.042;14.432;2023-04-24T03:23:00;4.10;;;2.00;;
78716;SDS011;68045;50.042;14.432;2023-04-24T03:27:01;5.03;;;2.20;;
78716;SDS011;68045;50.042;14.432;2023-04-24T03:31:25;6.68;;;2.47;;
78716;SDS011;68045;50.042;14.432;2023-04-24T03:35:26;3.75;;;2.15;;
78716;SDS011;68045;50.042;14.432;2023-04-24T03:39:28;3.50;;;1.88;;
78716;SDS011;68045;50.042;14.432;2023-04-24T03:47:34;3.67;;;2.08;;
78716;SDS011;68045;50.042;14.432;2023-04-24T03:51:38;4.75;;;2.50;;
78716;SDS011;68045;50.042;14.432;2023-04-24T03:55:57;4.68;;;2.20;;
78716;SDS011;68045;50.042;14.432;2023-04-24T03:59:59;3.85;;;2.25;;
78716;SDS011;68045;50.042;14.432;2023-04-24T04:04:01;3.30;;;2.35;;
78716;SDS011;68045;50.042;14.432;2023-04-24T04:08:03;5.07;;;2.40;;
78716;SDS011;68045;50.042;14.432;2023-04-24T04:12:04;4.18;;;2.70;;
78716;SDS011;68045;50.042;14.432;2023-04-24T04:20:09;3.95;;;2.15;;
78716;SDS011;68045;50.042;14.432;2023-04-24T04:24:12;3.83;;;2.20;;
78716;SDS011;68045;50.042;14.432;2023-04-24T04:28:17;5.65;;;2.50;;
78716;SDS011;68045;50.042;14.432;2023-04-24T04:32:21;4.78;;;2.13;;
78716;SDS011;68045;50.042;14.432;2023-04-24T04:36:24;3.38;;;2.40;;
78716;SDS011;68045;50.042;14.432;2023-04-24T04:40:31;5.65;;;2.50;;
78716;SDS011;68045;50.042;14.432;2023-04-24T04:44:36;4.22;;;2.53;;
78716;SDS011;68045;50.042;14.432;2023-04-24T04:48:40;3.42;;;2.40;;
78716;SDS011;68045;50.042;14.432;2023-04-24T04:52:41;4.43;;;2.22;;
78716;SDS011;68045;50.042;14.432;2023-04-24T04:56:53;5.78;;;2.58;;
78716;SDS011;68045;50.042;14.432;2023-04-24T05:00:55;4.40;;;2.42;;
78716;SDS011;68045;50.042;14.432;2023-04-24T05:05:08;6.90;;;2.85;;
78716;SDS011;68045;50.042;14.432;2023-04-24T05:09:09;5.35;;;2.90;;
78716;SDS011;68045;50.042;14.432;2023-04-24T05:13:26;5.68;;;2.60;;
78716;SDS011;68045;50.042;14.432;2023-04-24T05:17:27;7.28;;;3.13;;
78716;SDS011;68045;50.042;14.432;2023-04-24T05:21:30;4.95;;;2.78;;
78716;SDS011;68045;50.042;14.432;2023-04-24T05:25:31;6.28;;;3.10;;
78716;SDS011;68045;50.042;14.432;2023-04-24T05:29:41;5.45;;;2.85;;
78716;SDS011;68045;50.042;14.432;2023-04-24T05:33:43;5.53;;;2.80;;
78716;SDS011;68045;50.042;14.432;2023-04-24T05:37:46;4.57;;;2.58;;
78716;SDS011;68045;50.042;14.432;2023-04-24T05:41:47;7.35;;;3.15;;
78716;SDS011;68045;50.042;14.432;2023-04-24T05:45:48;5.35;;;2.95;;
78716;SDS011;68045;50.042;14.432;2023-04-24T05:49:49;5.82;;;2.90;;
78716;SDS011;68045;50.042;14.432;2023-04-24T05:53:51;4.05;;;2.47;;
78716;SDS011;68045;50.042;14.432;2023-04-24T05:57:52;5.22;;;2.95;;
78716;SDS011;68045;50.042;14.432;2023-04-24T06:01:54;5.55;;;2.88;;
78716;SDS011;68045;50.042;14.432;2023-04-24T06:05:57;4.95;;;2.70;;
78716;SDS011;68045;50.042;14.432;2023-04-24T06:09:59;5.20;;;3.00;;
78716;SDS011;68045;50.042;14.432;2023-04-24T06:14:00;5.15;;;3.28;;
78716;SDS011;68045;50.042;14.432;2023-04-24T06:18:32;4.90;;;3.20;;
78716;SDS011;68045;50.042;14.432;2023-04-24T06:22:34;4.68;;;3.00;;
78716;SDS011;68045;50.042;14.432;2023-04-24T06:26:35;6.95;;;3.63;;
78716;SDS011;68045;50.042;14.432;2023-04-24T06:30:36;5.43;;;3.50;;
78716;SDS011;68045;50.042;14.432;2023-04-24T06:34:37;6.78;;;3.50;;
78716;SDS011;68045;50.042;14.432;2023-04-24T06:38:38;8.00;;;4.10;;
78716;SDS011;68045;50.042;14.432;2023-04-24T06:42:39;6.28;;;3.88;;
78716;SDS011;68045;50.042;14.432;2023-04-24T06:46:42;6.85;;;3.95;;
78716;SDS011;68045;50.042;14.432;2023-04-24T06:50:43;5.88;;;3.83;;
78716;SDS011;68045;50.042;14.432;2023-04-24T06:54:44;5.70;;;3.47;;
78716;SDS011;68045;50.042;14.432;2023-04-24T06:58:45;8.73;;;4.18;;
78716;SDS011;68045;50.042;14.432;2023-04-24T07:02:46;6.45;;;4.30;;
78716;SDS011;68045;50.042;14.432;2023-04-24T07:06:47;6.60;;;4.20;;
78716;SDS011;68045;50.042;14.432;2023-04-24T07:14:51;5.80;;;4.03;;
78716;SDS011;68045;50.042;14.432;2023-04-24T07:18:52;5.75;;;3.33;;
78716;SDS011;68045;50.042;14.432;2023-04-24T07:22:53;5.40;;;3.67;;
78716;SDS011;68045;50.042;14.432;2023-04-24T07:26:54;5.38;;;3.83;;
78716;SDS011;68045;50.042;14.432;2023-04-24T07:30:55;6.40;;;4.00;;
78716;SDS011;68045;50.042;14.432;2023-04-24T07:34:56;10.52;;;4.32;;
78716;SDS011;68045;50.042;14.432;2023-04-24T07:38:57;7.65;;;4.28;;
78716;SDS011;68045;50.042;14.432;2023-04-24T07:42:58;4.72;;;2.95;;
78716;SDS011;68045;50.042;14.432;2023-04-24T07:46:59;5.03;;;3.35;;
78716;SDS011;68045;50.042;14.432;2023-04-24T07:51:00;4.05;;;2.90;;
78716;SDS011;68045;50.042;14.432;2023-04-24T07:55:01;4.68;;;3.13;;
78716;SDS011;68045;50.042;14.432;2023-04-24T07:59:02;4.90;;;3.08;;
78716;SDS011;68045;50.042;14.432;2023-04-24T08:03:04;5.45;;;3.65;;
78716;SDS011;68045;50.042;14.432;2023-04-24T08:11:06;6.15;;;3.45;;
78716;SDS011;68045;50.042;14.432;2023-04-24T08:15:07;4.70;;;3.17;;
78716;SDS011;68045;50.042;14.432;2023-04-24T08:19:08;4.72;;;3.10;;
78716;SDS011;68045;50.042;14.432;2023-04-24T08:23:10;7.10;;;2.97;;
78716;SDS011;68045;50.042;14.432;2023-04-24T08:27:10;8.35;;;2.90;;
78716;SDS011;68045;50.042;14.432;2023-04-24T08:31:11;5.30;;;3.40;;
78716;SDS011;68045;50.042;14.432;2023-04-24T08:35:12;6.40;;;4.35;;
78716;SDS011;68045;50.042;14.432;2023-04-24T08:39:13;8.10;;;4.40;;
78716;SDS011;68045;50.042;14.432;2023-04-24T08:43:14;7.53;;;4.50;;
78716;SDS011;68045;50.042;14.432;2023-04-24T08:47:16;7.60;;;4.70;;
78716;SDS011;68045;50.042;14.432;2023-04-24T08:51:20;8.35;;;4.78;;
78716;SDS011;68045;50.042;14.432;2023-04-24T08:55:22;8.15;;;5.65;;
78716;SDS011;68045;50.042;14.432;2023-04-24T08:59:25;8.48;;;5.28;;
78716;SDS011;68045;50.042;14.432;2023-04-24T09:03:27;10.30;;;6.43;;
78716;SDS011;68045;50.042;14.432;2023-04-24T09:07:29;8.18;;;5.68;;
78716;SDS011;68045;50.042;14.432;2023-04-24T09:11:35;8.68;;;5.30;;
78716;SDS011;68045;50.042;14.432;2023-04-24T09:15:38;6.72;;;4.93;;
78716;SDS011;68045;50.042;14.432;2023-04-24T09:19:42;8.85;;;5.10;;
78716;SDS011;68045;50.042;14.432;2023-04-24T09:23:42;6.90;;;4.13;;
78716;SDS011;68045;50.042;14.432;2023-04-24T09:27:43;7.82;;;4.45;;
78716;SDS011;68045;50.042;14.432;2023-04-24T09:31:45;7.90;;;4.40;;
78716;SDS011;68045;50.042;14.432;2023-04-24T09:35:50;5.90;;;3.60;;
78716;SDS011;68045;50.042;14.432;2023-04-24T09:40:08;8.05;;;4.22;;
78716;SDS011;68045;50.042;14.432;2023-04-24T09:44:22;6.40;;;4.30;;
78716;SDS011;68045;50.042;14.432;2023-04-24T09:48:31;6.63;;;4.03;;
78716;SDS011;68045;50.042;14.432;2023-04-24T09:52:33;4.65;;;3.30;;
78716;SDS011;68045;50.042;14.432;2023-04-24T09:56:34;4.35;;;3.53;;
78716;SDS011;68045;50.042;14.432;2023-04-24T10:00:35;5.70;;;3.03;;
78716;SDS011;68045;50.042;14.432;2023-04-24T10:04:36;4.38;;;3.08;;
78716;SDS011;68045;50.042;14.432;2023-04-24T10:08:37;5.15;;;3.00;;
78716;SDS011;68045;50.042;14.432;2023-04-24T10:12:38;5.97;;;3.17;;
78716;SDS011;68045;50.042;14.432;2023-04-24T10:16:40;6.22;;;2.78;;
78716;SDS011;68045;50.042;14.432;2023-04-24T10:20:41;4.10;;;2.28;;
78716;SDS011;68045;50.042;14.432;2023-04-24T10:24:42;4.72;;;2.50;;
78716;SDS011;68045;50.042;14.432;2023-04-24T10:32:46;3.17;;;2.05;;
78716;SDS011;68045;50.042;14.432;2023-04-24T10:36:56;4.15;;;1.88;;
78716;SDS011;68045;50.042;14.432;2023-04-24T10:41:06;3.50;;;1.95;;
78716;SDS011;68045;50.042;14.432;2023-04-24T10:45:16;3.78;;;1.85;;
78716;SDS011;68045;50.042;14.432;2023-04-24T10:49:19;7.72;;;2.17;;
78716;SDS011;68045;50.042;14.432;2023-04-24T10:53:29;2.88;;;1.77;;
78716;SDS011;68045;50.042;14.432;2023-04-24T10:57:31;3.92;;;1.88;;
78716;SDS011;68045;50.042;14.432;2023-04-24T11:01:33;3.58;;;1.75;;
78716;SDS011;68045;50.042;14.432;2023-04-24T11:05:53;2.80;;;1.77;;
78716;SDS011;68045;50.042;14.432;2023-04-24T11:09:58;3.35;;;1.90;;
78716;SDS011;68045;50.042;14.432;2023-04-24T11:18:00;3.00;;;1.60;;
78716;SDS011;68045;50.042;14.432;2023-04-24T11:26:10;2.20;;;1.40;;
78716;SDS011;68045;50.042;14.432;2023-04-24T11:30:32;2.00;;;1.40;;
78716;SDS011;68045;50.042;14.432;2023-04-24T11:34:36;2.20;;;1.35;;
78716;SDS011;68045;50.042;14.432;2023-04-24T11:42:41;2.17;;;1.45;;
78716;SDS011;68045;50.042;14.432;2023-04-24T11:46:46;2.95;;;1.42;;
78716;SDS011;68045;50.042;14.432;2023-04-24T11:50:46;3.55;;;1.50;;
78716;SDS011;68045;50.042;14.432;2023-04-24T11:54:48;3.10;;;2.05;;
78716;SDS011;68045;50.042;14.432;2023-04-24T11:58:53;4.13;;;1.75;;
78716;SDS011;68045;50.042;14.432;2023-04-24T12:03:07;3.38;;;1.60;;
78716;SDS011;68045;50.042;14.432;2023-04-24T12:07:09;4.05;;;1.50;;
78716;SDS011;68045;50.042;14.432;2023-04-24T12:11:10;3.95;;;1.40;;
78716;SDS011;68045;50.042;14.432;2023-04-24T12:15:12;2.25;;;1.42;;
78716;SDS011;68045;50.042;14.432;2023-04-24T12:19:17;4.20;;;1.80;;
78716;SDS011;68045;50.042;14.432;2023-04-24T12:23:33;5.38;;;1.77;;
78716;SDS011;68045;50.042;14.432;2023-04-24T12:27:36;4.15;;;1.65;;
78716;SDS011;68045;50.042;14.432;2023-04-24T12:31:36;1.35;;;0.80;;
78716;SDS011;68045;50.042;14.432;2023-04-24T12:35:39;1.55;;;1.10;;
78716;SDS011;68045;50.042;14.432;2023-04-24T12:39:57;2.15;;;0.95;;
78716;SDS011;68045;50.042;14.432;2023-04-24T12:44:10;3.30;;;1.30;;
78716;SDS011;68045;50.042;14.432;2023-04-24T12:48:11;3.85;;;1.70;;
78716;SDS011;68045;50.042;14.432;2023-04-24T12:52:12;4.25;;;1.52;;
78716;SDS011;68045;50.042;14.432;2023-04-24T12:56:13;3.95;;;1.60;;
78716;SDS011;68045;50.042;14.432;2023-04-24T13:00:13;3.67;;;1.58;;
78716;SDS011;68045;50.042;14.432;2023-04-24T13:04:15;5.10;;;2.20;;
78716;SDS011;68045;50.042;14.432;2023-04-24T13:12:18;4.32;;;1.70;;
78716;SDS011;68045;50.042;14.432;2023-04-24T13:16:19;5.05;;;1.95;;
78716;SDS011;68045;50.042;14.432;2023-04-24T13:20:20;4.00;;;1.95;;
78716;SDS011;68045;50.042;14.432;2023-04-24T13:24:21;2.72;;;1.77;;
78716;SDS011;68045;50.042;14.432;2023-04-24T13:28:25;3.53;;;1.90;;
78716;SDS011;68045;50.042;14.432;2023-04-24T13:32:25;5.45;;;2.08;;
78716;SDS011;68045;50.042;14.432;2023-04-24T13:36:28;3.25;;;2.00;;
78716;SDS011;68045;50.042;14.432;2023-04-24T13:40:29;5.78;;;2.25;;
78716;SDS011;68045;50.042;14.432;2023-04-24T13:44:30;3.22;;;1.90;;
78716;SDS011;68045;50.042;14.432;2023-04-24T13:48:31;3.65;;;2.40;;
78716;SDS011;68045;50.042;14.432;2023-04-24T13:52:31;4.45;;;2.55;;
78716;SDS011;68045;50.042;14.432;2023-04-24T13:56:32;4.45;;;2.00;;
78716;SDS011;68045;50.042;14.432;2023-04-24T14:00:33;3.17;;;1.70;;
78716;SDS011;68045;50.042;14.432;2023-04-24T14:04:34;3.72;;;1.30;;
78716;SDS011;68045;50.042;14.432;2023-04-24T14:08:35;6.10;;;1.83;;
78716;SDS011;68045;50.042;14.432;2023-04-24T14:12:36;2.10;;;1.30;;
78716;SDS011;68045;50.042;14.432;2023-04-24T14:16:37;2.70;;;1.50;;
78716;SDS011;68045;50.042;14.432;2023-04-24T14:20:37;2.13;;;1.38;;
78716;SDS011;68045;50.042;14.432;2023-04-24T14:24:38;2.20;;;1.30;;
78716;SDS011;68045;50.042;14.432;2023-04-24T14:28:39;1.73;;;1.20;;
78716;SDS011;68045;50.042;14.432;2023-04-24T14:32:41;1.80;;;1.30;;
78716;SDS011;68045;50.042;14.432;2023-04-24T14:36:41;2.38;;;1.65;;
78716;SDS011;68045;50.042;14.432;2023-04-24T14:40:42;2.70;;;1.70;;
78716;SDS011;68045;50.042;14.432;2023-04-24T14:44:43;2.30;;;1.35;;
78716;SDS011;68045;50.042;14.432;2023-04-24T14:48:44;3.28;;;1.67;;
78716;SDS011;68045;50.042;14.432;2023-04-24T14:52:45;2.95;;;1.50;;
78716;SDS011;68045;50.042;14.432;2023-04-24T14:56:46;2.20;;;1.40;;
78716;SDS011;68045;50.042;14.432;2023-04-24T15:00:47;2.97;;;1.70;;
78716;SDS011;68045;50.042;14.432;2023-04-24T15:04:52;2.80;;;1.70;;
78716;SDS011;68045;50.042;14.432;2023-04-24T15:08:53;2.13;;;1.48;;
78716;SDS011;68045;50.042;14.432;2023-04-24T15:12:54;2.28;;;1.33;;
78716;SDS011;68045;50.042;14.432;2023-04-24T15:16:55;3.20;;;1.40;;
78716;SDS011;68045;50.042;14.432;2023-04-24T15:20:56;3.35;;;1.50;;
78716;SDS011;68045;50.042;14.432;2023-04-24T15:24:57;4.30;;;1.80;;
78716;SDS011;68045;50.042;14.432;2023-04-24T15:28:57;2.47;;;1.70;;
78716;SDS011;68045;50.042;14.432;2023-04-24T15:32:59;2.30;;;1.60;;
78716;SDS011;68045;50.042;14.432;2023-04-24T15:41:02;2.17;;;1.50;;
78716;SDS011;68045;50.042;14.432;2023-04-24T15:45:02;1.70;;;1.27;;
78716;SDS011;68045;50.042;14.432;2023-04-24T15:49:04;4.32;;;1.40;;
78716;SDS011;68045;50.042;14.432;2023-04-24T15:53:05;3.75;;;1.50;;
78716;SDS011;68045;50.042;14.432;2023-04-24T15:57:06;2.55;;;1.60;;
78716;SDS011;68045;50.042;14.432;2023-04-24T16:01:07;3.13;;;1.48;;
78716;SDS011;68045;50.042;14.432;2023-04-24T16:05:08;2.42;;;1.52;;
78716;SDS011;68045;50.042;14.432;2023-04-24T16:09:09;2.55;;;1.50;;
78716;SDS011;68045;50.042;14.432;2023-04-24T16:13:10;2.15;;;1.40;;
78716;SDS011;68045;50.042;14.432;2023-04-24T16:17:10;2.00;;;1.40;;
78716;SDS011;68045;50.042;14.432;2023-04-24T16:21:12;2.38;;;1.45;;
78716;SDS011;68045;50.042;14.432;2023-04-24T16:25:13;2.88;;;1.40;;
78716;SDS011;68045;50.042;14.432;2023-04-24T16:29:13;4.38;;;1.70;;
78716;SDS011;68045;50.042;14.432;2023-04-24T16:33:14;2.83;;;1.63;;
78716;SDS011;68045;50.042;14.432;2023-04-24T16:37:15;2.55;;;1.45;;
78716;SDS011;68045;50.042;14.432;2023-04-24T16:41:17;1.80;;;1.33;;
78716;SDS011;68045;50.042;14.432;2023-04-24T16:45:18;3.78;;;1.65;;
78716;SDS011;68045;50.042;14.432;2023-04-24T16:49:18;3.83;;;1.55;;
78716;SDS011;68045;50.042;14.432;2023-04-24T16:53:19;2.22;;;1.50;;
78716;SDS011;68045;50.042;14.432;2023-04-24T16:57:20;2.10;;;1.30;;
78716;SDS011;68045;50.042;14.432;2023-04-24T17:01:21;4.65;;;1.50;;
78716;SDS011;68045;50.042;14.432;2023-04-24T17:05:23;2.40;;;1.60;;
78716;SDS011;68045;50.042;14.432;2023-04-24T17:09:24;2.70;;;1.50;;
78716;SDS011;68045;50.042;14.432;2023-04-24T17:13:26;2.10;;;1.40;;
78716;SDS011;68045;50.042;14.432;2023-04-24T17:17:27;2.92;;;1.60;;
78716;SDS011;68045;50.042;14.432;2023-04-24T17:21:28;4.80;;;1.50;;
78716;SDS011;68045;50.042;14.432;2023-04-24T17:25:28;3.83;;;1.90;;
78716;SDS011;68045;50.042;14.432;2023-04-24T17:29:29;2.58;;;1.45;;
78716;SDS011;68045;50.042;14.432;2023-04-24T17:37:32;2.72;;;1.60;;
78716;SDS011;68045;50.042;14.432;2023-04-24T17:41:34;2.83;;;1.80;;
78716;SDS011;68045;50.042;14.432;2023-04-24T17:45:35;3.55;;;1.73;;
78716;SDS011;68045;50.042;14.432;2023-04-24T17:49:36;4.15;;;2.00;;
78716;SDS011;68045;50.042;14.432;2023-04-24T17:57:40;3.35;;;1.95;;
78716;SDS011;68045;50.042;14.432;2023-04-24T18:01:41;3.85;;;2.20;;
78716;SDS011;68045;50.042;14.432;2023-04-24T18:05:42;5.57;;;2.92;;
78716;SDS011;68045;50.042;14.432;2023-04-24T18:09:43;4.65;;;2.40;;
78716;SDS011;68045;50.042;14.432;2023-04-24T18:13:44;5.00;;;2.42;;
78716;SDS011;68045;50.042;14.432;2023-04-24T18:17:46;3.80;;;1.98;;
78716;SDS011;68045;50.042;14.432;2023-04-24T18:21:47;3.83;;;2.10;;
78716;SDS011;68045;50.042;14.432;2023-04-24T18:25:48;4.63;;;2.38;;
78716;SDS011;68045;50.042;14.432;2023-04-24T18:29:49;3.53;;;1.85;;
78716;SDS011;68045;50.042;14.432;2023-04-24T18:33:51;4.28;;;2.30;;
78716;SDS011;68045;50.042;14.432;2023-04-24T18:37:53;3.80;;;2.00;;
78716;SDS011;68045;50.042;14.432;2023-04-24T18:41:54;3.78;;;2.20;;
78716;SDS011;68045;50.042;14.432;2023-04-24T18:45:55;5.18;;;2.30;;
78716;SDS011;68045;50.042;14.432;2023-04-24T18:49:56;4.18;;;2.63;;
78716;SDS011;68045;50.042;14.432;2023-04-24T18:53:57;3.72;;;2.13;;
78716;SDS011;68045;50.042;14.432;2023-04-24T18:57:58;3.42;;;2.38;;
78716;SDS011;68045;50.042;14.432;2023-04-24T19:01:59;3.70;;;2.17;;
78716;SDS011;68045;50.042;14.432;2023-04-24T19:06:00;4.32;;;2.17;;
78716;SDS011;68045;50.042;14.432;2023-04-24T19:10:01;4.47;;;2.22;;
78716;SDS011;68045;50.042;14.432;2023-04-24T19:14:02;4.40;;;2.80;;
78716;SDS011;68045;50.042;14.432;2023-04-24T19:18:04;4.70;;;2.60;;
78716;SDS011;68045;50.042;14.432;2023-04-24T19:22:05;3.88;;;2.03;;
78716;SDS011;68045;50.042;14.432;2023-04-24T19:26:07;3.65;;;2.13;;
78716;SDS011;68045;50.042;14.432;2023-04-24T19:30:08;2.80;;;1.80;;
78716;SDS011;68045;50.042;14.432;2023-04-24T19:34:09;3.55;;;1.95;;
78716;SDS011;68045;50.042;14.432;2023-04-24T19:38:10;4.35;;;2.10;;
78716;SDS011;68045;50.042;14.432;2023-04-24T19:42:11;3.25;;;1.88;;
78716;SDS011;68045;50.042;14.432;2023-04-24T19:46:12;2.78;;;1.90;;
78716;SDS011;68045;50.042;14.432;2023-04-24T19:50:13;4.97;;;2.17;;
78716;SDS011;68045;50.042;14.432;2023-04-24T19:54:14;4.35;;;1.90;;
78716;SDS011;68045;50.042;14.432;2023-04-24T19:58:15;7.25;;;2.10;;
78716;SDS011;68045;50.042;14.432;2023-04-24T20:02:16;2.45;;;1.65;;
78716;SDS011;68045;50.042;14.432;2023-04-24T20:06:17;3.28;;;1.92;;
78716;SDS011;68045;50.042;14.432;2023-04-24T20:10:18;5.70;;;2.08;;
78716;SDS011;68045;50.042;14.432;2023-04-24T20:14:19;3.88;;;1.95;;
78716;SDS011;68045;50.042;14.432;2023-04-24T20:18:20;3.72;;;2.08;;
78716;SDS011;68045;50.042;14.432;2023-04-24T20:22:21;2.95;;;1.83;;
78716;SDS011;68045;50.042;14.432;2023-04-24T20:26:22;3.13;;;1.83;;
78716;SDS011;68045;50.042;14.432;2023-04-24T20:30:23;3.45;;;1.73;;
78716;SDS011;68045;50.042;14.432;2023-04-24T20:34:24;2.72;;;1.70;;
78716;SDS011;68045;50.042;14.432;2023-04-24T20:38:25;2.60;;;1.70;;
78716;SDS011;68045;50.042;14.432;2023-04-24T20:42:26;3.33;;;1.98;;
78716;SDS011;68045;50.042;14.432;2023-04-24T20:46:28;4.03;;;1.90;;
78716;SDS011;68045;50.042;14.432;2023-04-24T20:50:29;3.33;;;1.88;;
78716;SDS011;68045;50.042;14.432;2023-04-24T20:54:32;9.63;;;2.20;;
78716;SDS011;68045;50.042;14.432;2023-04-24T20:58:33;3.53;;;1.83;;
78716;SDS011;68045;50.042;14.432;2023-04-24T21:02:34;3.45;;;1.90;;
78716;SDS011;68045;50.042;14.432;2023-04-24T21:06:35;3.22;;;1.95;;
78716;SDS011;68045;50.042;14.432;2023-04-24T21:10:36;4.68;;;2.17;;
78716;SDS011;68045;50.042;14.432;2023-04-24T21:14:37;3.97;;;2.20;;
78716;SDS011;68045;50.042;14.432;2023-04-24T21:18:38;4.07;;;1.80;;
78716;SDS011;68045;50.042;14.432;2023-04-24T21:22:40;3.00;;;1.88;;
78716;SDS011;68045;50.042;14.432;2023-04-24T21:26:41;3.40;;;2.15;;
78716;SDS011;68045;50.042;14.432;2023-04-24T21:30:41;3.80;;;2.35;;
78716;SDS011;68045;50.042;14.432;2023-04-24T21:34:43;6.22;;;2.40;;
78716;SDS011;68045;50.042;14.432;2023-04-24T21:38:43;5.28;;;2.33;;
78716;SDS011;68045;50.042;14.432;2023-04-24T21:42:44;4.13;;;2.13;;
78716;SDS011;68045;50.042;14.432;2023-04-24T21:46:45;3.08;;;1.90;;
78716;SDS011;68045;50.042;14.432;2023-04-24T21:50:46;3.85;;;2.28;;
78716;SDS011;68045;50.042;14.432;2023-04-24T21:54:47;4.13;;;2.20;;
78716;SDS011;68045;50.042;14.432;2023-04-24T21:58:48;3.28;;;2.17;;
78716;SDS011;68045;50.042;14.432;2023-04-24T22:02:49;3.53;;;1.98;;
78716;SDS011;68045;50.042;14.432;2023-04-24T22:06:50;5.35;;;2.30;;
78716;SDS011;68045;50.042;14.432;2023-04-24T22:10:52;3.55;;;2.20;;
78716;SDS011;68045;50.042;14.432;2023-04-24T22:14:54;4.18;;;2.00;;
78716;SDS011;68045;50.042;14.432;2023-04-24T22:18:55;6.93;;;3.45;;
78716;SDS011;68045;50.042;14.432;2023-04-24T22:22:56;3.92;;;2.17;;
78716;SDS011;68045;50.042;14.432;2023-04-24T22:26:57;3.78;;;1.95;;
78716;SDS011;68045;50.042;14.432;2023-04-24T22:30:58;4.10;;;2.15;;
78716;SDS011;68045;50.042;14.432;2023-04-24T22:34:58;5.20;;;2.20;;
78716;SDS011;68045;50.042;14.432;2023-04-24T22:38:59;3.85;;;2.20;;
78716;SDS011;68045;50.042;14.432;2023-04-24T22:43:00;4.35;;;2.30;;
78716;SDS011;68045;50.042;14.432;2023-04-24T22:47:01;4.00;;;2.40;;
78716;SDS011;68045;50.042;14.432;2023-04-24T22:51:06;3.08;;;2.15;;
78716;SDS011;68045;50.042;14.432;2023-04-24T22:55:07;4.15;;;2.50;;
78716;SDS011;68045;50.042;14.432;2023-04-24T22:59:08;5.35;;;2.45;;
78716;SDS011;68045;50.042;14.432;2023-04-24T23:03:09;3.60;;;2.38;;
78716;SDS011;68045;50.042;14.432;2023-04-24T23:07:11;3.78;;;2.15;;
78716;SDS011;68045;50.042;14.432;2023-04-24T23:11:12;3.80;;;2.22;;
78716;SDS011;68045;50.042;14.432;2023-04-24T23:15:13;3.70;;;2.45;;
78716;SDS011;68045;50.042;14.432;2023-04-24T23:19:14;4.53;;;2.55;;
78716;SDS011;68045;50.042;14.432;2023-04-24T23:23:15;5.25;;;2.78;;
78716;SDS011;68045;50.042;14.432;2023-04-24T23:27:16;8.25;;;3.85;;
78716;SDS011;68045;50.042;14.432;2023-04-24T23:31:17;4.43;;;2.22;;
78716;SDS011;68045;50.042;14.432;2023-04-24T23:35:19;4.40;;;2.40;;
78716;SDS011;68045;50.042;14.432;2023-04-24T23:39:19;9.10;;;2.58;;
78716;SDS011;68045;50.042;14.432;2023-04-24T23:43:20;3.88;;;2.28;;
78716;SDS011;68045;50.042;14.432;2023-04-24T23:47:21;4.72;;;2.40;;
78716;SDS011;68045;50.042;14.432;2023-04-24T23:51:22;6.22;;;2.45;;
78716;SDS011;68045;50.042;14.432;2023-04-24T23:55:23;6.63;;;2.70;;
78716;SDS011;68045;50.042;14.432;2023-04-24T23:59:24;3.80;;;2.10;;
